createdAt,value
2022-11-09T00:01:44.183Z,15.18
2022-11-09T00:04:13.145Z,16.00
2022-11-09T00:06:42.154Z,15.60
2022-11-09T00:09:11.083Z,15.57
2022-11-09T00:11:39.854Z,16.08
2022-11-09T00:14:15.561Z,15.50
2022-11-09T00:16:44.547Z,14.63
2022-11-09T00:19:14.150Z,15.38
2022-11-09T00:21:43.070Z,14.10
2022-11-09T00:24:12.408Z,14.93
2022-11-09T00:26:41.320Z,15.40
2022-11-09T00:29:11.580Z,15.60
2022-11-09T00:31:40.403Z,14.73
2022-11-09T00:34:09.403Z,15.32
2022-11-09T00:36:38.416Z,14.90
2022-11-09T00:39:07.209Z,14.93
2022-11-09T00:41:36.096Z,15.77
2022-11-09T00:44:05.123Z,15.10
2022-11-09T00:46:35.745Z,15.48
2022-11-09T00:49:04.953Z,15.65
2022-11-09T00:51:33.740Z,15.90
2022-11-09T00:54:02.793Z,15.40
2022-11-09T00:56:31.601Z,15.38
2022-11-09T00:59:00.399Z,14.88
2022-11-09T01:01:29.357Z,15.50
2022-11-09T01:03:59.603Z,15.77
2022-11-09T01:06:28.567Z,15.27
2022-11-09T01:08:57.409Z,15.73
2022-11-09T01:11:26.259Z,14.20
2022-11-09T01:13:55.114Z,15.40
2022-11-09T01:16:24.382Z,14.68
2022-11-09T01:18:54.981Z,14.60
2022-11-09T01:21:25.322Z,15.60
2022-11-09T01:23:54.221Z,14.52
2022-11-09T01:26:23.381Z,15.70
2022-11-09T01:28:52.320Z,15.75
2022-11-09T01:31:21.754Z,15.88
2022-11-09T01:33:50.715Z,14.95
2022-11-09T01:36:20.552Z,15.20
2022-11-09T01:38:50.942Z,15.13
2022-11-09T01:41:21.418Z,14.15
2022-11-09T01:44:05.434Z,14.75
2022-11-09T01:46:37.150Z,15.00
2022-11-09T01:49:08.223Z,14.00
2022-11-09T01:51:38.897Z,14.77
2022-11-09T01:54:16.435Z,14.45
2022-11-09T01:56:45.571Z,15.38
2022-11-09T01:59:16.673Z,14.07
2022-11-09T02:01:45.698Z,13.90
2022-11-09T02:04:15.144Z,14.15
2022-11-09T02:06:44.044Z,13.77
2022-11-09T02:09:16.883Z,14.07
2022-11-09T02:11:45.677Z,14.52
2022-11-09T02:14:14.539Z,14.93
2022-11-09T02:16:43.351Z,14.73
2022-11-09T02:19:12.244Z,14.70
2022-11-09T02:21:42.422Z,15.45
2022-11-09T02:24:11.268Z,14.35
2022-11-09T02:26:42.158Z,15.20
2022-11-09T02:29:11.514Z,15.00
2022-11-09T02:31:42.697Z,14.15
2022-11-09T02:34:12.605Z,13.73
2022-11-09T02:36:43.671Z,14.00
2022-11-09T02:39:12.761Z,14.20
2022-11-09T02:41:45.434Z,14.30
2022-11-09T02:44:14.417Z,13.95
2022-11-09T02:46:43.403Z,14.02
2022-11-09T02:49:12.266Z,14.93
2022-11-09T02:51:42.575Z,14.38
2022-11-09T02:54:11.354Z,14.15
2022-11-09T02:56:40.518Z,13.27
2022-11-09T02:59:09.303Z,13.93
2022-11-09T03:01:38.269Z,15.43
2022-11-09T03:04:07.315Z,14.63
2022-11-09T03:06:36.383Z,13.63
2022-11-09T03:09:07.862Z,14.27
2022-11-09T03:11:36.878Z,15.27
2022-11-09T03:14:05.839Z,15.15
2022-11-09T03:16:34.621Z,14.10
2022-11-09T03:19:03.407Z,14.20
2022-11-09T03:21:32.318Z,14.27
2022-11-09T03:24:01.049Z,14.23
2022-11-09T03:26:31.290Z,13.80
2022-11-09T03:29:00.109Z,15.23
2022-11-09T03:31:28.989Z,14.95
2022-11-09T03:33:57.913Z,14.80
2022-11-09T03:36:26.799Z,14.00
2022-11-09T03:38:55.513Z,14.60
2022-11-09T03:41:24.477Z,13.65
2022-11-09T03:43:54.583Z,14.70
2022-11-09T03:46:23.453Z,15.00
2022-11-09T03:48:52.275Z,13.45
2022-11-09T03:51:21.186Z,13.60
2022-11-09T03:53:50.081Z,14.45
2022-11-09T03:56:18.871Z,15.10
2022-11-09T03:58:47.705Z,14.43
2022-11-09T04:01:17.905Z,14.13
2022-11-09T04:03:46.840Z,14.93
2022-11-09T04:06:15.630Z,13.60
2022-11-09T04:08:49.921Z,14.35
2022-11-09T04:11:20.086Z,14.20
2022-11-09T04:13:49.051Z,14.52
2022-11-09T04:16:19.798Z,13.95
2022-11-09T04:18:48.675Z,14.70
2022-11-09T04:21:22.788Z,14.68
2022-11-09T04:23:52.928Z,15.18
2022-11-09T04:26:21.722Z,13.45
2022-11-09T04:28:50.739Z,13.95
2022-11-09T04:31:24.274Z,14.80
2022-11-09T04:33:56.789Z,13.95
2022-11-09T04:36:25.572Z,13.77
2022-11-09T04:38:54.626Z,13.73
2022-11-09T04:41:23.509Z,13.80
2022-11-09T04:43:52.471Z,14.80
2022-11-09T04:46:22.626Z,13.65
2022-11-09T04:48:51.727Z,13.13
2022-11-09T04:51:20.486Z,14.82
2022-11-09T04:53:49.380Z,13.90
2022-11-09T04:56:18.185Z,14.48
2022-11-09T04:58:47.138Z,13.77
2022-11-09T05:01:17.308Z,13.05
2022-11-09T05:03:47.691Z,13.02
2022-11-09T05:06:34.756Z,13.93
2022-11-09T05:09:05.228Z,14.27
2022-11-09T05:11:34.247Z,14.60
2022-11-09T05:14:03.052Z,14.45
2022-11-09T05:16:32.057Z,13.52
2022-11-09T05:19:02.311Z,13.32
2022-11-09T05:21:31.070Z,13.95
2022-11-09T05:23:59.002Z,13.77
2022-11-09T05:26:29.185Z,13.77
2022-11-09T05:28:59.210Z,13.75
2022-11-09T05:31:28.159Z,13.93
2022-11-09T05:33:57.190Z,13.68
2022-11-09T05:36:28.034Z,13.95
2022-11-09T05:38:57.045Z,13.52
2022-11-09T05:41:25.802Z,14.30
2022-11-09T05:43:54.681Z,14.48
2022-11-09T05:46:23.541Z,14.02
2022-11-09T05:48:52.382Z,14.13
2022-11-09T05:51:21.835Z,14.15
2022-11-09T05:53:52.051Z,13.65
2022-11-09T05:56:20.905Z,14.35
2022-11-09T05:58:49.887Z,13.23
2022-11-09T06:01:19.861Z,13.85
2022-11-09T06:03:48.864Z,14.68
2022-11-09T06:06:17.978Z,13.82
2022-11-09T06:08:47.048Z,13.60
2022-11-09T06:11:23.529Z,15.55
2022-11-09T06:13:53.549Z,15.32
2022-11-09T06:16:22.361Z,14.98
2022-11-09T06:18:51.226Z,14.60
2022-11-09T06:21:20.007Z,13.63
2022-11-09T06:23:48.904Z,13.20
2022-11-09T06:26:19.091Z,13.23
2022-11-09T06:28:47.897Z,14.23
2022-11-09T06:31:18.263Z,13.18
2022-11-09T06:33:48.168Z,14.15
2022-11-09T06:36:16.892Z,13.40
2022-11-09T06:38:45.332Z,14.05
2022-11-09T06:41:14.092Z,13.73
2022-11-09T06:43:44.013Z,13.50
2022-11-09T06:46:17.394Z,13.50
2022-11-09T06:48:49.394Z,12.75
2022-11-09T06:51:21.031Z,14.32
2022-11-09T06:53:49.754Z,14.45
2022-11-09T06:56:18.680Z,13.75
2022-11-09T06:58:49.168Z,13.68
2022-11-09T07:01:19.225Z,14.48
2022-11-09T07:03:48.145Z,14.55
2022-11-09T07:06:17.214Z,14.45
2022-11-09T07:08:46.018Z,15.02
2022-11-09T07:11:16.955Z,15.05
2022-11-09T07:13:45.737Z,15.10
2022-11-09T07:16:17.421Z,14.55
2022-11-09T07:18:46.421Z,14.88
2022-11-09T07:21:15.444Z,15.00
2022-11-09T07:23:44.387Z,14.52
2022-11-09T07:26:13.359Z,14.55
2022-11-09T07:28:42.989Z,13.88
2022-11-09T07:31:11.848Z,14.52
2022-11-09T07:33:41.993Z,14.35
2022-11-09T07:36:10.886Z,14.07
2022-11-09T07:38:39.647Z,14.85
2022-11-09T07:41:09.180Z,13.60
2022-11-09T07:43:38.050Z,14.50
2022-11-09T07:46:07.558Z,13.52
2022-11-09T07:48:36.300Z,13.82
2022-11-09T07:51:08.317Z,13.45
2022-11-09T07:53:37.850Z,14.68
2022-11-09T07:56:07.210Z,13.05
2022-11-09T07:58:38.171Z,14.10
2022-11-09T08:01:09.466Z,13.18
2022-11-09T08:03:38.456Z,12.95
2022-11-09T08:06:09.676Z,13.32
2022-11-09T08:08:39.799Z,13.85
2022-11-09T08:11:08.646Z,13.77
2022-11-09T08:13:37.375Z,13.27
2022-11-09T08:16:06.685Z,13.55
2022-11-09T08:18:35.440Z,13.23
2022-11-09T08:21:04.532Z,13.13
2022-11-09T08:23:34.796Z,12.50
2022-11-09T08:26:04.493Z,12.85
2022-11-09T08:28:33.628Z,13.25
2022-11-09T08:31:03.133Z,13.52
2022-11-09T08:33:34.547Z,13.43
2022-11-09T08:36:03.468Z,13.48
2022-11-09T08:38:34.052Z,13.38
2022-11-09T08:41:02.849Z,13.05
2022-11-09T08:43:31.648Z,13.52
2022-11-09T08:46:00.452Z,13.05
2022-11-09T08:48:29.422Z,13.02
2022-11-09T08:50:59.095Z,13.70
2022-11-09T08:53:28.984Z,13.05
2022-11-09T08:55:59.475Z,13.68
2022-11-09T08:58:28.457Z,13.65
2022-11-09T09:00:57.296Z,13.10
2022-11-09T09:03:26.248Z,13.07
2022-11-09T09:05:55.055Z,12.95
2022-11-09T09:08:25.564Z,12.70
2022-11-09T09:10:54.263Z,13.70
2022-11-09T09:13:24.917Z,13.00
2022-11-09T09:15:53.908Z,12.35
2022-11-09T09:18:24.218Z,12.82
2022-11-09T09:20:53.170Z,12.95
2022-11-09T09:23:22.402Z,13.00
2022-11-09T09:25:54.086Z,12.23
2022-11-09T09:28:26.519Z,12.82
2022-11-09T09:30:55.293Z,13.02
2022-11-09T09:33:24.166Z,12.98
2022-11-09T09:35:52.888Z,13.90
2022-11-09T09:38:22.092Z,12.80
2022-11-09T09:40:58.403Z,12.13
2022-11-09T09:43:33.469Z,12.43
2022-11-09T09:46:03.529Z,12.18
2022-11-09T09:48:36.838Z,12.52
2022-11-09T09:51:08.259Z,12.90
2022-11-09T09:53:39.874Z,13.02
2022-11-09T09:56:12.680Z,11.95
2022-11-09T09:58:46.062Z,12.70
2022-11-09T10:01:16.822Z,13.10
2022-11-09T10:03:46.348Z,12.68
2022-11-09T10:06:37.777Z,13.18
2022-11-09T10:09:14.321Z,12.02
2022-11-09T10:11:47.687Z,12.75
2022-11-09T10:14:47.167Z,12.57
2022-11-09T10:17:20.259Z,12.68
2022-11-09T10:19:57.326Z,12.27
2022-11-09T10:22:29.826Z,12.13
2022-11-09T10:27:53.183Z,11.93
2022-11-09T10:30:24.391Z,12.18
2022-11-09T10:32:54.098Z,12.05
2022-11-09T10:35:25.718Z,12.73
2022-11-09T10:37:55.160Z,13.18
2022-11-09T10:40:25.863Z,13.15
2022-11-09T10:42:57.378Z,12.95
2022-11-09T10:45:32.860Z,12.52
2022-11-09T10:48:01.939Z,12.48
2022-11-09T10:50:33.910Z,12.13
2022-11-09T10:53:18.137Z,12.25
2022-11-09T10:55:54.889Z,12.00
2022-11-09T10:58:33.070Z,12.40
2022-11-09T11:01:05.563Z,12.07
2022-11-09T11:03:35.794Z,11.63
2022-11-09T11:06:05.728Z,12.35
2022-11-09T11:08:37.403Z,11.50
2022-11-09T11:11:35.714Z,11.93
2022-11-09T11:14:17.170Z,11.38
2022-11-09T11:16:53.071Z,11.20
2022-11-09T11:19:33.985Z,11.80
2022-11-09T11:22:19.223Z,12.23
2022-11-09T11:24:51.539Z,11.85
2022-11-09T11:27:22.842Z,11.98
2022-11-09T11:29:55.818Z,12.05
2022-11-09T11:32:26.474Z,11.85
2022-11-09T11:35:02.700Z,11.85
2022-11-09T11:37:40.048Z,11.45
2022-11-09T11:40:11.595Z,12.23
2022-11-09T11:43:11.799Z,11.80
2022-11-09T11:45:43.056Z,11.95
2022-11-09T11:48:43.358Z,11.60
2022-11-09T11:51:14.779Z,11.65
2022-11-09T11:53:54.415Z,12.25
2022-11-09T11:56:25.911Z,11.38
2022-11-09T11:59:06.516Z,12.52
2022-11-09T12:01:51.814Z,11.43
2022-11-09T12:04:32.641Z,11.73
2022-11-09T12:07:16.160Z,11.52
2022-11-09T12:10:10.726Z,11.65
2022-11-09T12:12:44.336Z,11.43
2022-11-09T12:15:24.800Z,11.70
2022-11-09T12:18:00.322Z,11.88
2022-11-09T12:20:33.533Z,11.52
2022-11-09T12:23:18.498Z,11.45
2022-11-09T12:25:50.815Z,11.50
2022-11-09T12:28:36.001Z,12.07
2022-11-09T12:31:10.506Z,11.18
2022-11-09T12:33:44.309Z,11.38
2022-11-09T12:36:17.229Z,12.15
2022-11-09T12:38:53.943Z,11.45
2022-11-09T12:41:23.966Z,11.88
2022-11-09T12:43:54.845Z,11.25
2022-11-09T12:46:26.275Z,11.73
2022-11-09T12:48:55.177Z,12.02
2022-11-09T12:51:25.327Z,11.85
2022-11-09T12:53:54.124Z,11.20
2022-11-09T12:56:25.863Z,11.98
2022-11-09T12:58:54.689Z,11.15
2022-11-09T13:01:48.831Z,10.98
2022-11-09T13:04:18.963Z,11.68
2022-11-09T13:07:21.019Z,12.15
2022-11-09T13:09:55.242Z,11.55
2022-11-09T13:12:36.999Z,11.40
2022-11-09T13:15:23.601Z,10.65
2022-11-09T13:17:59.245Z,11.23
2022-11-09T13:21:00.536Z,10.73
2022-11-09T13:26:26.430Z,10.90
2022-11-09T13:29:23.356Z,10.77
2022-11-09T13:32:28.155Z,11.02
2022-11-09T13:34:58.072Z,11.07
2022-11-09T13:37:49.553Z,10.48
2022-11-09T13:40:42.260Z,10.80
2022-11-09T13:43:22.732Z,11.02
2022-11-09T13:45:53.066Z,10.73
2022-11-09T13:48:34.562Z,11.07
2022-11-09T13:51:05.286Z,11.43
2022-11-09T13:53:57.122Z,11.45
2022-11-09T13:56:30.157Z,10.98
2022-11-09T13:59:02.041Z,10.98
2022-11-09T14:01:37.016Z,11.30
2022-11-09T14:04:07.182Z,11.27
2022-11-09T14:06:36.051Z,10.90
2022-11-09T14:09:05.114Z,10.98
2022-11-09T14:11:46.590Z,11.35
2022-11-09T14:14:53.124Z,10.48
2022-11-09T14:17:24.439Z,11.00
2022-11-09T14:20:00.233Z,11.35
2022-11-09T14:22:29.058Z,11.48
2022-11-09T14:24:57.784Z,11.15
2022-11-09T14:27:27.894Z,11.15
2022-11-09T14:29:57.598Z,10.98
2022-11-09T14:32:28.942Z,10.35
2022-11-09T14:35:24.224Z,10.43
2022-11-09T14:37:55.229Z,10.02
2022-11-09T14:40:26.299Z,10.48
2022-11-09T14:42:58.901Z,11.32
2022-11-09T14:45:28.090Z,9.82
2022-11-09T14:47:58.693Z,10.77
2022-11-09T14:50:28.336Z,10.68
2022-11-09T14:52:57.428Z,11.32
2022-11-09T14:55:26.433Z,10.88
2022-11-09T14:57:57.180Z,10.77
2022-11-09T15:00:31.284Z,10.63
2022-11-09T15:03:00.250Z,10.93
2022-11-09T15:05:31.657Z,10.77
2022-11-09T15:08:00.869Z,10.13
2022-11-09T15:10:32.628Z,11.07
2022-11-09T15:13:04.752Z,10.45
2022-11-09T15:15:34.440Z,11.02
2022-11-09T15:18:03.267Z,11.50
2022-11-09T15:20:33.791Z,11.13
2022-11-09T15:23:03.292Z,11.60
2022-11-09T15:25:34.220Z,12.82
2022-11-09T15:28:20.705Z,13.57
2022-11-09T15:30:50.582Z,16.40
2022-11-09T15:33:25.546Z,16.90
2022-11-09T15:35:55.218Z,16.33
2022-11-09T15:38:32.066Z,18.45
2022-11-09T15:41:01.048Z,17.25
2022-11-09T15:43:32.224Z,16.83
2022-11-09T15:46:01.280Z,17.17
2022-11-09T15:48:30.286Z,18.98
2022-11-09T15:50:59.037Z,17.70
2022-11-09T15:53:27.881Z,17.35
2022-11-09T15:55:56.731Z,16.77
2022-11-09T15:58:25.532Z,17.52
2022-11-09T16:00:55.719Z,16.88
2022-11-09T16:03:25.652Z,16.63
2022-11-09T16:05:54.434Z,17.05
2022-11-09T16:08:23.832Z,16.63
2022-11-09T16:10:52.844Z,16.23
2022-11-09T16:13:21.607Z,17.33
2022-11-09T16:15:50.382Z,16.38
2022-11-09T16:18:25.742Z,16.33
2022-11-09T16:20:55.159Z,16.70
2022-11-09T16:23:23.916Z,16.02
2022-11-09T16:25:52.765Z,16.73
2022-11-09T16:28:22.015Z,16.20
2022-11-09T16:30:51.215Z,16.77
2022-11-09T16:33:21.467Z,15.70
2022-11-09T16:35:50.255Z,16.42
2022-11-09T16:38:19.610Z,16.27
2022-11-09T16:40:48.556Z,15.35
2022-11-09T16:43:17.487Z,15.68
2022-11-09T16:45:47.507Z,16.83
2022-11-09T16:48:16.378Z,15.38
2022-11-09T16:50:47.416Z,15.55
2022-11-09T16:53:17.075Z,16.02
2022-11-09T16:55:45.979Z,14.82
2022-11-09T16:58:14.811Z,15.98
2022-11-09T17:01:09.607Z,16.50
2022-11-09T17:03:35.067Z,15.73
2022-11-09T17:06:05.754Z,15.95
2022-11-09T17:08:34.717Z,15.80
2022-11-09T17:11:07.681Z,15.02
2022-11-09T17:13:36.673Z,15.63
2022-11-09T17:16:06.717Z,15.45
2022-11-09T17:18:37.747Z,14.80
2022-11-09T17:21:10.669Z,14.25
2022-11-09T17:23:39.737Z,15.05
2022-11-09T17:26:08.926Z,16.40
2022-11-09T17:28:42.645Z,14.73
2022-11-09T17:31:15.637Z,15.02
2022-11-09T17:33:45.609Z,15.65
2022-11-09T17:36:25.953Z,15.48
2022-11-09T17:39:06.872Z,16.05
2022-11-09T17:41:40.106Z,16.48
2022-11-09T17:44:11.269Z,15.77
2022-11-09T17:46:40.111Z,15.68
2022-11-09T17:49:10.371Z,15.85
2022-11-09T17:51:40.782Z,16.73
2022-11-09T17:54:09.595Z,17.48
2022-11-09T17:56:39.980Z,15.45
2022-11-09T17:59:08.870Z,25.58
2022-11-09T18:01:41.584Z,20.20
2022-11-09T18:04:11.905Z,19.00
2022-11-09T18:06:42.225Z,18.20
2022-11-09T18:09:39.559Z,17.52
2022-11-09T18:12:00.460Z,17.65
2022-11-09T18:14:29.399Z,16.75
2022-11-09T18:16:59.642Z,17.75
2022-11-09T18:19:28.383Z,17.10
2022-11-09T18:22:02.683Z,16.35
2022-11-09T18:24:33.029Z,16.00
2022-11-09T18:27:03.617Z,17.92
2022-11-09T18:29:32.325Z,16.92
2022-11-09T18:32:01.287Z,17.15
2022-11-09T18:34:30.080Z,17.45
2022-11-09T18:37:00.388Z,17.48
2022-11-09T18:39:31.143Z,16.92
2022-11-09T18:42:02.087Z,15.85
2022-11-09T18:44:33.227Z,16.30
2022-11-09T18:47:05.325Z,16.30
2022-11-09T18:49:36.348Z,16.02
2022-11-09T18:52:07.700Z,16.02
2022-11-09T18:54:36.660Z,16.80
2022-11-09T18:57:05.712Z,16.30
2022-11-09T18:59:40.122Z,17.10
2022-11-09T19:02:11.626Z,17.35
2022-11-09T19:04:40.610Z,16.75
2022-11-09T19:07:10.933Z,17.25
2022-11-09T19:09:39.847Z,16.25
2022-11-09T19:12:09.645Z,17.23
2022-11-09T19:14:41.062Z,16.73
2022-11-09T19:17:12.350Z,16.40
2022-11-09T19:19:42.362Z,15.98
2022-11-09T19:22:16.959Z,15.10
2022-11-09T19:24:46.047Z,16.17
2022-11-09T19:27:15.073Z,16.27
2022-11-09T19:29:43.838Z,16.33
2022-11-09T19:32:12.888Z,16.50
2022-11-09T19:34:42.921Z,16.27
2022-11-09T19:37:13.356Z,18.45
2022-11-09T19:39:45.318Z,17.52
2022-11-09T19:42:14.225Z,17.20
2022-11-09T19:44:44.872Z,17.27
2022-11-09T19:47:13.649Z,17.02
2022-11-09T19:49:42.653Z,17.52
2022-11-09T19:52:12.815Z,17.30
2022-11-09T19:54:43.366Z,17.20
2022-11-09T19:57:12.309Z,16.15
2022-11-09T19:59:41.268Z,17.90
2022-11-09T20:02:10.683Z,17.60
2022-11-09T20:04:39.521Z,17.40
2022-11-09T20:07:08.325Z,17.55
2022-11-09T20:09:38.523Z,18.85
2022-11-09T20:12:25.235Z,20.48
2022-11-09T20:14:54.109Z,19.77
2022-11-09T20:17:24.098Z,20.48
2022-11-09T20:19:53.105Z,19.30
2022-11-09T20:22:22.011Z,18.92
2022-11-09T20:24:52.192Z,19.33
2022-11-09T20:27:21.129Z,18.55
2022-11-09T20:29:49.964Z,18.15
2022-11-09T20:32:21.441Z,18.25
2022-11-09T20:34:50.587Z,18.63
2022-11-09T20:37:19.675Z,17.85
2022-11-09T20:39:48.451Z,18.40
2022-11-09T20:42:19.176Z,16.70
2022-11-09T20:44:48.086Z,16.95
2022-11-09T20:47:35.480Z,17.23
2022-11-09T20:50:07.044Z,17.80
2022-11-09T20:52:35.968Z,16.33
2022-11-09T20:55:05.070Z,16.23
2022-11-09T20:57:35.234Z,16.73
2022-11-09T21:00:04.348Z,16.85
2022-11-09T21:02:33.452Z,16.95
2022-11-09T21:05:02.877Z,16.60
2022-11-09T21:07:31.929Z,16.92
2022-11-09T21:10:00.777Z,15.93
2022-11-09T21:12:29.653Z,16.98
2022-11-09T21:14:59.900Z,16.13
2022-11-09T21:17:28.658Z,16.80
2022-11-09T21:19:57.459Z,16.10
2022-11-09T21:22:46.259Z,16.60
2022-11-09T21:25:32.845Z,16.85
2022-11-09T21:28:19.629Z,16.52
2022-11-09T21:30:50.173Z,16.67
2022-11-09T21:33:19.073Z,15.82
2022-11-09T21:35:47.936Z,15.77
2022-11-09T21:38:16.661Z,16.83
2022-11-09T21:40:45.481Z,17.00
2022-11-09T21:43:14.988Z,16.50
2022-11-09T21:45:44.134Z,18.77
2022-11-09T21:48:14.312Z,15.73
2022-11-09T21:50:43.058Z,16.83
2022-11-09T21:53:11.802Z,15.88
2022-11-09T21:55:40.578Z,16.08
2022-11-09T21:58:10.298Z,16.15
2022-11-09T22:00:39.061Z,15.93
2022-11-09T22:03:07.887Z,17.00
2022-11-09T22:05:38.100Z,17.45
2022-11-09T22:08:07.039Z,19.05
2022-11-09T22:10:35.906Z,21.27
2022-11-09T22:13:22.324Z,27.20
2022-11-09T22:16:09.883Z,27.17
2022-11-09T22:18:56.494Z,21.80
2022-11-09T22:21:26.632Z,25.73
2022-11-09T22:23:55.361Z,23.63
2022-11-09T22:26:24.116Z,23.52
2022-11-09T22:28:52.862Z,21.83
2022-11-09T22:31:21.683Z,20.20
2022-11-09T22:33:50.643Z,19.08
2022-11-09T22:36:19.491Z,20.20
2022-11-09T22:38:49.671Z,19.45
2022-11-09T22:41:18.430Z,19.48
2022-11-09T22:43:47.230Z,17.67
2022-11-09T22:46:17.276Z,18.33
2022-11-09T22:48:46.390Z,19.80
2022-11-09T22:51:16.205Z,18.52
2022-11-09T22:53:44.956Z,17.58
2022-11-09T22:56:15.210Z,17.63
2022-11-09T22:58:45.147Z,17.48
2022-11-09T23:01:15.798Z,17.55
2022-11-09T23:03:44.730Z,17.13
2022-11-09T23:06:14.970Z,17.05
2022-11-09T23:08:44.013Z,17.10
2022-11-09T23:11:14.872Z,19.95
2022-11-09T23:13:44.425Z,16.92
2022-11-09T23:16:13.409Z,17.80
2022-11-09T23:18:56.613Z,17.13
2022-11-09T23:21:27.051Z,16.80
2022-11-09T23:23:57.431Z,16.45
2022-11-09T23:26:27.155Z,16.60
2022-11-09T23:28:56.073Z,17.30
2022-11-09T23:31:25.149Z,16.23
2022-11-09T23:33:54.511Z,17.73
2022-11-09T23:36:23.947Z,18.05
2022-11-09T23:38:52.768Z,17.67
2022-11-09T23:41:21.678Z,16.75
2022-11-09T23:43:52.004Z,18.27
2022-11-09T23:46:20.884Z,15.70
2022-11-09T23:48:50.082Z,16.30
2022-11-09T23:51:19.685Z,16.25
2022-11-09T23:53:48.462Z,17.42
2022-11-09T23:56:17.428Z,15.20
2022-11-09T23:58:51.435Z,15.25
